Airfield :
LOGIN :

Register | Disclaimer

   EN    FR    IT 

 










Legend :    VFR   Marginal VFR   IFR   Intensive IFR   Very Intensive IFR
Visi :
Ceiling :
>= 8 km
>= 3000ft
5 to 8 km
1000 to 3000 ft
1500m to 5 km
500 to 1000 ft
800 to 1500m
200 to 500 ft
< 800m
< 200 ft
Symbols :   Thunderstorms  Fog  Heavy snow  Heavy precipitations  Wind > 20 kt
SIGMETs :     Misc.  Thunderstorms  Icing  Turbulence  Mountain Waves  Volcanic Ashes







- Airport Elevation : 158 ft
- IATA code : QAR


EHDL - Deelen Airbase

CURRENT METAR :
  • 201525Z AUTO 27007KT 200V350 9999 BKN033 BKN042 BKN047 20/12 Q1012 BLU

EXPIRED METARs :
  • 201455Z AUTO 26010KT 210V340 9999 FEW036 21/12 Q1012 BLU
  • 201425Z AUTO 27011KT 190V320 9999 SCT032 BKN036 BKN060 21/14 Q1012 BLU
  • 201355Z AUTO 26009KT 170V320 9999 FEW029 SCT032 BKN042 20/14 Q1012 BLU
  • 201325Z AUTO 24011KT 180V310 9999 SCT027 BKN030 BKN035 20/14 Q1011 BLU
  • 201255Z AUTO 22012G22KT 170V320 9999 SCT028 BKN032 BKN037 21/14 Q1011 BLU

TAF TAF EHDL
Valid from the 20 at 05:00 until the 20 at 17:00 UTC


200450Z 2005/2017 22008KT 3500 BR FEW008 SCT012 BKN050
TEMPO 2005/2007 FEW005 SCT008 BKN012
BECMG 2007/2009 8000 NSW FEW012 BKN015
BECMG 2008/2011 SCT020
BECMG 2011/2013 27010KT
PROB40
TEMPO 2010/2017 28012G22KT FEW020CB BKN025
No reported NOTAMs for that airfield.



MET'MAP, your aeronautical weather chart ! - Copyright ORBIFLY December 2007 - Disclaimer

ORBIFLY MET'MAP TEAM :

Programming & Development : Alexandra Zaïnal
Concept & Development : Baudouin d'Aumeries
Co-Development & Prog : Marc-Olivier Méhu
Technical & hardware support : Manuel Goepfert

Contact : metmap@orbifly.com




SOURCES & CREDITS :

   NOAA